Time;durP1;ratioP1;P1;durP2;ratioP2;P2;SDS_P1;SDS_P2;PMS_P1;PMS_P2;Temp;Humidity;BMP_temperature;BMP_pressure;BME280_temperature;BME280_humidity;BME280_pressure;Samples;Min_cycle;Max_cycle;Signal;HPM_P1;HPM_P2
2022/11/10 00:01:09;;;;;;;;;18.00;15.50;;;;;7.48;84.68;98587.59;4903896;28;102884;-69
2022/11/10 00:03:38;;;;;;;;;20.25;15.25;;;;;7.61;84.19;98607.47;4913894;28;102284;-69
2022/11/10 00:06:08;;;;;;;;;15.00;14.00;;;;;7.60;84.59;98611.22;4913777;28;102269;-70
2022/11/10 00:08:35;;;;;;;;;19.25;16.75;;;;;7.55;84.55;98612.75;4910178;28;109389;-69
2022/11/10 00:11:06;;;;;;;;;21.00;15.50;;;;;7.56;84.81;98611.75;4913681;28;102379;-70
2022/11/10 00:16:59;;;;;;;;;19.50;17.50;;;;;7.55;84.97;98610.06;4912374;28;101986;-70
2022/11/10 00:19:12;;;;;;;;;14.00;10.00;;;;;7.50;84.25;98601.72;4914032;28;108776;-70
2022/11/10 00:21:39;;;;;;;;;14.25;11.75;;;;;7.48;83.78;98606.41;4904096;28;102622;-70
2022/11/10 00:24:06;;;;;;;;;18.00;15.50;;;;;7.44;84.58;98603.25;4913395;28;102191;-70
2022/11/10 00:26:33;;;;;;;;;8.25;3.25;;;;;7.42;84.36;98610.69;4906006;28;103140;-70
2022/11/10 00:29:00;;;;;;;;;10.25;10.00;;;;;7.43;84.33;98616.91;4902661;28;102871;-71
2022/11/10 00:31:27;;;;;;;;;10.75;9.25;;;;;7.41;84.86;98618.94;4910378;28;102272;-71
2022/11/10 00:33:54;;;;;;;;;9.00;8.00;;;;;7.40;84.40;98618.09;4912335;28;102365;-70
2022/11/10 00:36:22;;;;;;;;;24.75;15.75;;;;;7.31;84.97;98618.34;4904048;28;102235;-70
2022/11/10 00:38:51;;;;;;;;;16.75;13.25;;;;;7.30;85.20;98605.91;4904734;28;104036;-71
2022/11/10 00:41:19;;;;;;;;;25.00;20.50;;;;;7.23;84.96;98602.28;4907474;28;102500;-70
2022/11/10 00:43:46;;;;;;;;;24.50;20.00;;;;;7.23;84.97;98605.78;4911601;28;102095;-71
2022/11/10 00:46:14;;;;;;;;;20.50;15.75;;;;;7.21;85.29;98610.50;4905455;28;102233;-71
2022/11/10 00:48:41;;;;;;;;;14.25;11.25;;;;;7.06;85.26;98578.19;4900059;28;103993;-70
2022/11/10 00:51:25;;;;;;;;;10.00;9.25;;;;;7.22;84.88;98614.03;4913912;28;102019;-69
2022/11/10 00:53:52;;;;;;;;;17.00;14.25;;;;;7.21;85.44;98601.59;4917964;28;102147;-70
2022/11/10 00:56:21;;;;;;;;;9.25;8.25;;;;;7.01;85.11;98571.69;4910371;28;102512;-69
2022/11/10 00:58:48;;;;;;;;;9.50;7.50;;;;;7.21;85.01;98615.03;4916676;28;104030;-69
2022/11/10 01:01:17;;;;;;;;;9.00;8.50;;;;;7.22;84.91;98608.66;4905894;28;102363;-70
2022/11/10 01:03:44;;;;;;;;;4.25;4.00;;;;;7.17;84.76;98615.41;4910974;28;102226;-69
2022/11/10 01:06:14;;;;;;;;;3.75;3.75;;;;;7.15;85.13;98611.25;4901019;28;102406;-70
2022/11/10 01:08:41;;;;;;;;;9.50;7.50;;;;;6.99;84.79;98590.66;4901289;28;103853;-70
2022/11/10 01:11:18;;;;;;;;;4.00;3.00;;;;;7.11;84.69;98618.00;4902286;28;102417;-70
2022/11/10 01:13:45;;;;;;;;;9.00;7.50;;;;;7.08;85.73;98624.53;4917834;28;102209;-69
2022/11/10 01:16:15;;;;;;;;;7.00;5.25;;;;;7.06;85.22;98623.91;4905564;28;102439;-70
2022/11/10 01:18:42;;;;;;;;;10.50;7.50;;;;;7.10;85.40;98638.66;4906290;28;103999;-70
2022/11/10 01:21:10;;;;;;;;;6.00;5.25;;;;;7.08;85.47;98631.78;4921861;28;102140;-69
2022/11/10 01:23:36;;;;;;;;;7.00;6.00;;;;;7.07;85.72;98636.31;4920174;28;102440;-69
2022/11/10 01:26:05;;;;;;;;;1.00;1.00;;;;;7.06;85.27;98631.97;4905146;28;102522;-70
2022/11/10 01:28:34;;;;;;;;;7.00;4.75;;;;;7.03;84.95;98636.84;4916377;28;108144;-70
2022/11/10 01:31:20;;;;;;;;;5.75;3.75;;;;;7.00;85.29;98632.66;4905386;28;102441;-70
2022/11/10 01:33:47;;;;;;;;;14.75;9.75;;;;;7.02;86.11;98645.94;4911714;28;102306;-70
2022/11/10 01:36:15;;;;;;;;;12.75;9.00;;;;;7.05;86.32;98651.78;4908368;28;102529;-70
2022/11/10 01:38:42;;;;;;;;;8.25;6.50;;;;;7.08;85.88;98651.44;4911682;28;103958;-70
2022/11/10 01:41:11;;;;;;;;;10.25;9.25;;;;;7.11;86.02;98651.06;4912157;28;102419;-70
2022/11/10 01:43:39;;;;;;;;;6.50;6.50;;;;;7.10;85.53;98646.72;4927854;28;102241;-71
2022/11/10 01:46:08;;;;;;;;;6.25;6.00;;;;;7.10;85.43;98641.34;4911333;28;102151;-70
2022/11/10 01:48:44;;;;;;;;;14.50;12.75;;;;;7.10;86.29;98653.94;4910106;28;108714;-70
2022/11/10 01:51:21;;;;;;;;;23.00;14.75;;;;;7.13;85.71;98657.13;4917193;28;102076;-70
2022/11/10 01:53:53;;;;;;;;;25.00;20.50;;;;;7.20;85.68;98653.72;4922004;28;103044;-70
2022/11/10 01:56:22;;;;;;;;;21.25;17.00;;;;;7.22;85.94;98649.00;4904666;28;102412;-70
2022/11/10 01:58:59;;;;;;;;;33.75;25.50;;;;;7.33;85.31;98654.81;4898343;28;104010;-70
2022/11/10 02:01:26;;;;;;;;;30.25;23.25;;;;;7.38;85.40;98656.97;4896871;28;101915;-70
2022/11/10 02:04:00;;;;;;;;;20.50;16.75;;;;;7.42;84.45;98658.28;4903291;28;102471;-70
2022/11/10 02:06:44;;;;;;;;;21.75;20.00;;;;;7.46;84.23;98670.34;4906961;28;102317;-70
2022/11/10 02:09:34;;;;;;;;;18.50;14.75;;;;;7.49;84.43;98680.75;4906970;28;108004;-70
2022/11/10 02:12:35;;;;;;;;;10.75;8.00;;;;;7.51;84.27;98670.66;4894725;28;102557;-70
2022/11/10 02:15:29;;;;;;;;;19.50;16.75;;;;;7.51;84.23;98663.41;4913610;28;103115;-70
2022/11/10 02:18:14;;;;;;;;;19.00;17.50;;;;;7.48;83.92;98654.84;4932882;28;102388;-70
2022/11/10 02:21:00;;;;;;;;;13.00;12.00;;;;;7.53;83.49;98666.75;4923301;28;107643;-70
2022/11/10 02:23:44;;;;;;;;;10.00;7.25;;;;;7.52;83.50;98662.38;4921585;28;103177;-71
2022/11/10 02:26:14;;;;;;;;;14.50;9.00;;;;;7.50;83.95;98669.81;4915112;28;102437;-70
2022/11/10 02:28:41;;;;;;;;;9.00;8.00;;;;;7.46;83.56;98664.97;4922087;28;102654;-71
2022/11/10 02:31:08;;;;;;;;;9.00;8.00;;;;;7.37;83.78;98649.91;4920547;28;104194;-70
2022/11/10 02:33:36;;;;;;;;;9.00;7.00;;;;;7.43;84.01;98671.53;4917702;28;102458;-70
2022/11/10 02:36:03;;;;;;;;;9.00;6.00;;;;;7.44;83.67;98683.97;4913298;28;102142;-70
2022/11/10 02:38:30;;;;;;;;;9.75;9.00;;;;;7.41;83.94;98672.72;4918665;28;102524;-70
2022/11/10 02:40:57;;;;;;;;;10.00;8.00;;;;;7.40;84.22;98682.66;4914630;28;104111;-70
2022/11/10 02:43:24;;;;;;;;;10.25;8.50;;;;;7.37;84.10;98676.81;4907802;28;103878;-70
2022/11/10 02:45:51;;;;;;;;;17.75;14.25;;;;;7.37;84.61;98685.72;4921695;28;102538;-70
2022/11/10 02:48:19;;;;;;;;;9.50;8.25;;;;;7.40;83.97;98682.66;4928356;28;102462;-70
2022/11/10 02:50:46;;;;;;;;;12.25;9.50;;;;;7.32;83.94;98685.41;4915615;28;104020;-70
2022/11/10 02:53:13;;;;;;;;;6.00;4.50;;;;;7.33;83.78;98688.94;4925213;28;102148;-70
2022/11/10 02:55:39;;;;;;;;;8.75;7.25;;;;;7.32;84.40;98696.16;4918182;28;102117;-70
2022/11/10 02:58:06;;;;;;;;;8.25;8.25;;;;;7.34;84.39;98693.31;4915446;28;102561;-70
2022/11/10 03:00:33;;;;;;;;;10.00;9.25;;;;;7.34;84.75;98693.31;4917760;28;108762;-71
2022/11/10 03:03:01;;;;;;;;;8.75;7.75;;;;;7.37;85.08;98698.31;4916056;28;102144;-70
2022/11/10 03:05:29;;;;;;;;;14.00;9.00;;;;;7.37;85.07;98698.31;4911978;28;102408;-70
2022/11/10 03:07:59;;;;;;;;;11.00;7.00;;;;;7.40;84.74;98703.34;4912539;28;103395;-70
2022/11/10 03:10:28;;;;;;;;;14.75;13.00;;;;;7.40;85.62;98704.16;4914248;28;104012;-70
2022/11/10 03:13:00;;;;;;;;;12.75;11.25;;;;;7.49;85.01;98702.25;4915240;28;102456;-70
2022/11/10 03:15:28;;;;;;;;;19.25;13.00;;;;;7.54;85.33;98699.88;4926003;28;102372;-70
2022/11/10 03:17:55;;;;;;;;;16.75;11.50;;;;;7.60;84.75;98701.84;4918931;28;102327;-70
2022/11/10 03:20:22;;;;;;;;;17.50;14.00;;;;;7.66;84.61;98702.97;4918272;28;103991;-70
2022/11/10 03:22:49;;;;;;;;;14.25;11.00;;;;;7.70;84.32;98713.19;4917735;28;102481;-70
2022/11/10 03:25:16;;;;;;;;;11.50;10.25;;;;;7.76;83.92;98723.25;4911117;28;102409;-70
2022/11/10 03:27:44;;;;;;;;;12.25;10.00;;;;;7.70;84.36;98694.34;4909434;28;102527;-70
2022/11/10 03:30:11;;;;;;;;;14.75;10.00;;;;;7.87;84.26;98708.53;4902957;28;103971;-70
2022/11/10 03:32:38;;;;;;;;;13.25;8.75;;;;;7.87;83.61;98701.31;4912557;28;102544;-70
2022/11/10 03:35:05;;;;;;;;;11.50;10.00;;;;;7.94;83.51;98704.94;4901629;28;102384;-69
2022/11/10 03:37:32;;;;;;;;;13.75;8.00;;;;;7.97;83.70;98718.00;4910434;28;102900;-70
2022/11/10 03:39:59;;;;;;;;;17.25;12.50;;;;;7.97;83.38;98717.22;4920693;28;104214;-70
2022/11/10 03:42:26;;;;;;;;;24.50;19.25;;;;;7.99;83.53;98718.69;4905297;28;102229;-70
2022/11/10 03:44:53;;;;;;;;;18.25;14.25;;;;;8.02;83.35;98718.31;4912243;28;102962;-70
2022/11/10 03:47:20;;;;;;;;;15.00;13.00;;;;;8.09;83.68;98713.03;4913921;28;102463;-70
2022/11/10 03:49:47;;;;;;;;;9.00;8.00;;;;;8.12;83.46;98720.75;4912061;28;103972;-70
2022/11/10 03:52:14;;;;;;;;;15.50;13.50;;;;;8.13;83.24;98717.03;4904613;28;102230;-69
2022/11/10 03:54:41;;;;;;;;;14.50;9.00;;;;;8.14;83.05;98718.72;4911145;28;102343;-69
2022/11/10 03:57:08;;;;;;;;;15.75;12.00;;;;;8.17;82.55;98721.03;4911596;28;109984;-69
2022/11/10 03:59:35;;;;;;;;;11.75;8.50;;;;;8.19;82.72;98720.88;4916980;28;108779;-69
2022/11/10 04:02:02;;;;;;;;;13.50;10.75;;;;;8.17;83.08;98715.66;4909245;28;102905;-69
2022/11/10 04:10:00;;;;;;;;;19.75;14.25;;;;;8.15;83.14;98728.47;4902778;28;103963;-69
2022/11/10 04:18:19;;;;;;;;;26.00;23.50;;;;;8.16;83.37;98732.00;4911794;28;102281;-70
2022/11/10 04:20:45;;;;;;;;;22.75;16.75;;;;;8.19;83.42;98727.09;4907292;28;108667;-70
2022/11/10 04:23:28;;;;;;;;;20.25;13.25;;;;;8.21;83.26;98722.34;4911309;28;102456;-70
2022/11/10 04:26:31;;;;;;;;;11.75;10.00;;;;;8.24;83.05;98718.47;4900700;28;102643;-69
2022/11/10 04:29:00;;;;;;;;;10.00;6.75;;;;;8.15;82.47;98719.56;4909765;28;105755;-70
2022/11/10 04:31:29;;;;;;;;;10.00;9.00;;;;;8.26;82.68;98754.13;4912536;28;103979;-69
2022/11/10 04:33:57;;;;;;;;;10.25;8.50;;;;;8.27;82.30;98745.03;4906686;28;102892;-71
2022/11/10 04:36:28;;;;;;;;;10.75;9.00;;;;;8.26;82.48;98756.81;4910598;28;102941;-68
2022/11/10 04:38:55;;;;;;;;;12.00;10.50;;;;;8.25;82.45;98752.44;4917396;28;102424;-69
2022/11/10 04:41:24;;;;;;;;;14.00;13.00;;;;;8.27;83.04;98763.88;4908431;28;103985;-70
2022/11/10 04:43:51;;;;;;;;;14.00;11.00;;;;;8.30;83.00;98766.25;4908562;28;102064;-70
2022/11/10 04:46:38;;;;;;;;;16.00;14.00;;;;;8.32;82.41;98769.59;4910031;28;102445;-69
2022/11/10 04:49:06;;;;;;;;;11.00;9.00;;;;;8.33;83.00;98768.59;4911671;28;102493;-70
2022/11/10 04:51:35;;;;;;;;;8.25;6.50;;;;;8.31;82.90;98771.44;4918921;28;103996;-70
2022/11/10 04:54:04;;;;;;;;;11.25;10.00;;;;;8.34;82.66;98775.63;4919833;28;102639;-70
2022/11/10 04:56:33;;;;;;;;;16.50;12.25;;;;;8.23;82.40;98754.50;4919045;28;101944;-70
2022/11/10 04:59:00;;;;;;;;;15.75;13.00;;;;;8.38;82.71;98779.63;4917411;28;102362;-70
2022/11/10 05:01:27;;;;;;;;;13.00;12.25;;;;;8.40;82.60;98778.44;4924134;28;103943;-70
2022/11/10 05:03:54;;;;;;;;;15.00;14.00;;;;;8.42;82.02;98775.56;4906626;28;102203;-70
2022/11/10 05:06:23;;;;;;;;;9.00;8.25;;;;;8.42;82.23;98786.34;4924931;28;102232;-70
2022/11/10 05:08:51;;;;;;;;;12.25;10.00;;;;;8.42;82.09;98784.47;4913574;28;102361;-70
2022/11/10 05:11:18;;;;;;;;;13.75;10.75;;;;;8.43;82.74;98782.63;4912160;28;103992;-70
2022/11/10 05:13:45;;;;;;;;;8.50;7.75;;;;;8.45;82.21;98791.38;4909475;28;102151;-70
2022/11/10 05:16:12;;;;;;;;;10.25;8.50;;;;;8.45;81.98;98778.72;4904085;28;102218;-70
2022/11/10 05:18:41;;;;;;;;;8.00;6.50;;;;;8.48;81.99;98785.59;4908763;28;102748;-70
2022/11/10 05:21:08;;;;;;;;;4.25;3.75;;;;;8.49;82.13;98780.03;4906166;28;103999;-70
2022/11/10 05:23:37;;;;;;;;;7.00;4.25;;;;;8.51;81.69;98790.63;4921942;28;102202;-70
2022/11/10 05:26:13;;;;;;;;;22.00;14.75;;;;;8.45;82.35;98794.06;4916698;28;102038;-70
2022/11/10 05:28:42;;;;;;;;;15.00;13.00;;;;;8.48;82.86;98801.78;4919133;28;106042;-70
2022/11/10 05:31:10;;;;;;;;;8.00;4.00;;;;;8.50;82.41;98799.75;4900712;28;108954;-70
2022/11/10 05:33:38;;;;;;;;;18.25;11.50;;;;;8.24;82.63;98765.06;4904546;28;102179;-70
2022/11/10 05:36:05;;;;;;;;;11.75;9.00;;;;;8.46;82.65;98793.03;4903731;28;102456;-70
2022/11/10 05:38:33;;;;;;;;;10.25;9.25;;;;;8.51;82.60;98806.78;4906997;28;102657;-70
2022/11/10 05:41:07;;;;;;;;;13.75;11.00;;;;;8.53;82.68;98815.53;4910740;28;108573;-70
2022/11/10 05:43:34;;;;;;;;;13.00;11.25;;;;;8.56;82.52;98817.84;4917657;28;102323;-70
2022/11/10 05:46:01;;;;;;;;;8.75;7.75;;;;;8.57;82.32;98822.22;4906616;28;102025;-70
2022/11/10 05:48:28;;;;;;;;;7.25;5.00;;;;;8.60;82.41;98826.44;4906723;28;101965;-70
2022/11/10 05:50:55;;;;;;;;;12.00;10.00;;;;;8.59;82.07;98828.28;4899824;28;104035;-70
2022/11/10 05:53:22;;;;;;;;;7.75;7.00;;;;;8.62;82.60;98824.38;4912705;28;102397;-70
2022/11/10 05:55:49;;;;;;;;;8.00;4.50;;;;;8.64;82.10;98833.97;4907500;28;102371;-70
2022/11/10 05:58:16;;;;;;;;;10.00;8.00;;;;;8.66;82.23;98840.00;4904689;28;102423;-70
2022/11/10 06:00:43;;;;;;;;;5.75;5.50;;;;;8.67;81.85;98851.63;4903755;28;104002;-70
2022/11/10 06:03:15;;;;;;;;;7.00;7.00;;;;;8.70;82.15;98856.63;4905517;28;102058;-70
2022/11/10 06:05:42;;;;;;;;;7.00;6.75;;;;;8.71;82.34;98858.31;4895043;28;102228;-71
2022/11/10 06:08:10;;;;;;;;;8.50;6.25;;;;;8.70;81.93;98868.25;4911039;28;102217;-70
2022/11/10 06:10:37;;;;;;;;;9.75;8.50;;;;;8.72;81.98;98873.47;4909374;28;108761;-70
2022/11/10 06:13:05;;;;;;;;;8.75;7.25;;;;;8.70;82.20;98865.56;4910385;28;103131;-70
2022/11/10 06:15:32;;;;;;;;;9.25;6.75;;;;;8.73;82.32;98884.09;4912156;28;102346;-70
2022/11/10 06:17:59;;;;;;;;;13.00;12.25;;;;;8.73;82.39;98888.66;4907824;28;102169;-70
2022/11/10 06:20:27;;;;;;;;;21.00;16.25;;;;;8.74;82.50;98893.84;4915084;28;103984;-70
2022/11/10 06:23:02;;;;;;;;;17.50;14.75;;;;;8.58;82.04;98856.25;4909528;28;103675;-70
2022/11/10 06:25:30;;;;;;;;;24.50;20.50;;;;;8.78;82.72;98891.63;4911146;28;102512;-70
2022/11/10 06:27:58;;;;;;;;;13.25;12.00;;;;;8.85;82.80;98895.25;4907307;28;102487;-70
2022/11/10 06:30:26;;;;;;;;;11.75;9.75;;;;;8.90;82.79;98901.78;4904136;28;104021;-70
2022/11/10 06:32:54;;;;;;;;;7.25;7.25;;;;;8.92;82.90;98901.59;4899175;28;103062;-69
2022/11/10 06:35:22;;;;;;;;;9.75;9.00;;;;;8.90;82.14;98896.41;4909268;28;102197;-69
2022/11/10 06:37:57;;;;;;;;;15.00;12.00;;;;;8.99;82.35;98907.09;4913040;28;102144;-69
2022/11/10 06:40:24;;;;;;;;;8.00;6.00;;;;;9.01;82.27;98911.28;4909181;28;104005;-70
2022/11/10 06:42:51;;;;;;;;;9.00;7.75;;;;;9.05;82.45;98912.59;4905507;28;103895;-70
2022/11/10 06:45:19;;;;;;;;;7.25;6.50;;;;;9.07;82.76;98912.41;4906245;28;102458;-70
2022/11/10 06:47:45;;;;;;;;;8.00;6.50;;;;;9.10;82.86;98922.81;4907347;28;102267;-69
2022/11/10 06:50:13;;;;;;;;;12.75;8.25;;;;;9.11;82.80;98922.66;4903753;28;103986;-70
2022/11/10 06:52:40;;;;;;;;;13.75;7.75;;;;;9.10;83.23;98920.13;4907921;28;102163;-69
2022/11/10 06:55:07;;;;;;;;;14.50;12.00;;;;;9.12;82.89;98923.50;4910522;28;102347;-70
2022/11/10 06:57:38;;;;;;;;;16.00;12.75;;;;;9.12;82.97;98934.28;4908860;28;102348;-70
2022/11/10 07:00:05;;;;;;;;;20.25;14.75;;;;;9.13;82.92;98942.19;4910858;28;104222;-70
2022/11/10 07:02:32;;;;;;;;;14.00;9.25;;;;;9.07;82.68;98925.91;4908821;28;102339;-69
2022/11/10 07:04:59;;;;;;;;;31.25;16.75;;;;;9.14;83.21;98956.53;4906619;28;102088;-69
2022/11/10 07:07:26;;;;;;;;;13.75;10.00;;;;;9.16;83.12;98951.78;4908554;28;103154;-69
2022/11/10 07:09:53;;;;;;;;;21.25;17.00;;;;;9.18;83.16;98950.59;4904861;28;103647;-69
2022/11/10 07:12:20;;;;;;;;;21.75;17.75;;;;;9.20;83.48;98956.63;4902646;28;102066;-69
2022/11/10 07:14:47;;;;;;;;;18.75;16.50;;;;;9.22;83.57;98948.34;4914067;28;102450;-70
2022/11/10 07:17:14;;;;;;;;;18.00;13.75;;;;;9.16;83.78;98943.69;4913361;28;102470;-69
2022/11/10 07:19:41;;;;;;;;;17.50;16.00;;;;;9.26;83.91;98968.53;4916824;28;104132;-69
2022/11/10 07:22:08;;;;;;;;;16.50;14.75;;;;;9.26;83.41;98973.94;4912312;28;102209;-69
2022/11/10 07:24:37;;;;;;;;;25.00;20.00;;;;;9.27;83.30;98978.31;4917673;28;102162;-70
2022/11/10 07:27:03;;;;;;;;;16.25;10.00;;;;;9.31;83.39;98972.38;4921946;28;102593;-70
2022/11/10 07:29:30;;;;;;;;;14.25;11.00;;;;;9.36;83.73;98977.22;4909200;28;104035;-70
2022/11/10 07:31:57;;;;;;;;;17.00;14.25;;;;;9.38;83.62;98988.66;4904228;28;102123;-70
2022/11/10 07:34:24;;;;;;;;;13.25;10.00;;;;;9.40;83.53;98992.03;4911699;28;102271;-69
2022/11/10 07:36:51;;;;;;;;;12.50;10.25;;;;;9.40;83.87;98987.47;4901269;28;104369;-70
2022/11/10 07:39:18;;;;;;;;;21.00;17.50;;;;;9.32;84.05;99001.00;4914675;28;103704;-70
2022/11/10 07:41:45;;;;;;;;;29.75;24.00;;;;;9.25;84.62;98993.84;4912290;28;102275;-70
2022/11/10 07:44:18;;;;;;;;;25.75;19.75;;;;;9.30;84.67;99004.94;4896835;28;102562;-69
2022/11/10 07:46:44;;;;;;;;;13.00;12.25;;;;;9.31;84.35;98998.50;4907330;28;102329;-69
2022/11/10 07:49:11;;;;;;;;;17.50;15.50;;;;;9.30;84.75;98997.69;4908169;28;104029;-70
2022/11/10 07:51:39;;;;;;;;;18.50;14.50;;;;;9.35;84.80;98989.03;4929021;28;101841;-69
2022/11/10 07:54:06;;;;;;;;;18.00;13.50;;;;;9.40;84.69;98992.03;4923134;28;102234;-69
2022/11/10 07:56:33;;;;;;;;;15.75;11.25;;;;;9.44;84.75;98987.09;4922278;28;102098;-69
2022/11/10 07:58:59;;;;;;;;;18.25;15.50;;;;;9.43;84.53;99007.84;4907719;28;104156;-70
2022/11/10 08:01:26;;;;;;;;;26.75;18.75;;;;;9.31;84.46;99020.09;4908688;28;102194;-70
2022/11/10 08:03:53;;;;;;;;;22.75;20.50;;;;;9.31;84.65;99025.50;4920729;28;102070;-70
2022/11/10 08:06:20;;;;;;;;;25.00;21.00;;;;;9.29;85.13;99032.91;4905424;28;102224;-70
2022/11/10 08:08:47;;;;;;;;;23.50;20.25;;;;;9.26;85.18;99042.22;4902174;28;104073;-70
2022/11/10 08:11:14;;;;;;;;;24.50;22.25;;;;;9.18;85.87;99036.06;4901682;28;102416;-68
2022/11/10 08:13:42;;;;;;;;;38.75;26.75;;;;;9.18;85.93;99041.47;4909787;28;102719;-71
2022/11/10 08:16:09;;;;;;;;;34.00;26.00;;;;;9.24;85.63;99059.59;4913214;28;102013;-71
2022/11/10 08:18:36;;;;;;;;;27.00;19.75;;;;;9.27;85.39;99064.66;4911667;28;106426;-69
2022/11/10 08:21:03;;;;;;;;;15.75;11.75;;;;;9.30;85.11;99056.19;4909369;28;102006;-69
2022/11/10 08:23:31;;;;;;;;;19.75;16.25;;;;;9.32;85.35;99057.69;4926413;28;102457;-69
2022/11/10 08:25:58;;;;;;;;;17.50;14.25;;;;;9.36;85.27;99060.88;4908148;28;101952;-69
2022/11/10 08:28:26;;;;;;;;;14.25;13.25;;;;;9.38;84.80;99067.75;4902045;28;103670;-70
2022/11/10 08:30:53;;;;;;;;;17.25;16.00;;;;;9.38;85.43;99065.06;4904383;28;102009;-70
2022/11/10 08:33:20;;;;;;;;;18.25;15.00;;;;;9.48;85.57;99059.41;4903387;28;102018;-69
2022/11/10 08:35:50;;;;;;;;;12.25;10.50;;;;;9.54;84.66;99057.84;4922092;28;102064;-69
2022/11/10 08:38:21;;;;;;;;;15.50;12.00;;;;;9.61;84.38;99073.13;4908344;28;103998;-69
2022/11/10 08:40:48;;;;;;;;;10.00;9.50;;;;;9.68;84.41;99065.94;4913894;28;102331;-70
2022/11/10 08:43:16;;;;;;;;;18.00;12.50;;;;;9.75;84.16;99072.31;4909664;28;102161;-70
2022/11/10 08:45:45;;;;;;;;;13.75;10.75;;;;;9.77;83.95;99072.13;4922150;28;102276;-70
2022/11/10 08:48:21;;;;;;;;;11.00;7.00;;;;;9.86;83.49;99076.44;4918349;28;104028;-70
2022/11/10 08:50:49;;;;;;;;;18.25;16.25;;;;;9.93;83.74;99081.91;4921954;28;102040;-70
2022/11/10 08:53:19;;;;;;;;;18.00;15.50;;;;;10.01;83.39;99081.81;4915555;28;102400;-70
2022/11/10 08:55:47;;;;;;;;;11.00;10.00;;;;;10.10;82.93;99086.09;4923848;28;102174;-70
2022/11/10 08:58:16;;;;;;;;;14.00;12.75;;;;;10.18;82.75;99086.88;4909380;28;103997;-70
2022/11/10 09:00:44;;;;;;;;;11.50;8.00;;;;;10.14;82.15;99088.25;4908180;28;102427;-70
2022/11/10 09:03:17;;;;;;;;;17.00;11.00;;;;;10.21;81.87;99104.59;4898568;28;102887;-70
2022/11/10 09:05:46;;;;;;;;;11.25;9.75;;;;;10.23;82.21;99108.78;4914865;28;102277;-70
2022/11/10 09:08:14;;;;;;;;;15.00;11.00;;;;;10.21;82.06;99108.16;4923939;28;103953;-70
2022/11/10 09:10:46;;;;;;;;;11.50;10.50;;;;;10.22;82.15;99104.41;4916595;28;102236;-70
2022/11/10 09:13:14;;;;;;;;;14.50;13.00;;;;;10.29;81.92;99118.03;4897969;28;102420;-70
2022/11/10 09:15:43;;;;;;;;;10.75;8.75;;;;;10.37;82.02;99104.41;4911917;28;103178;-70
2022/11/10 09:18:12;;;;;;;;;11.50;11.25;;;;;10.41;81.46;99121.91;4911531;28;108690;-70
2022/11/10 09:20:40;;;;;;;;;24.75;18.50;;;;;10.38;81.73;99125.00;4917682;28;102297;-70
2022/11/10 09:23:10;;;;;;;;;19.00;13.75;;;;;10.44;81.79;99128.84;4911436;28;102166;-70
2022/11/10 09:25:38;;;;;;;;;15.00;13.75;;;;;10.45;80.74;99128.63;4908119;28;103082;-70
2022/11/10 09:28:09;;;;;;;;;14.50;11.00;;;;;10.44;81.66;99131.53;4917533;28;104341;-70
2022/11/10 09:30:36;;;;;;;;;12.00;11.25;;;;;10.41;81.83;99127.31;4917738;28;102182;-70
2022/11/10 09:33:03;;;;;;;;;14.25;12.00;;;;;10.39;81.44;99123.16;4923772;28;102490;-69
2022/11/10 09:35:30;;;;;;;;;18.25;15.75;;;;;10.37;81.12;99136.00;4902278;28;102149;-69
2022/11/10 09:37:57;;;;;;;;;22.75;21.25;;;;;10.23;82.23;99141.22;4917464;28;103994;-69
2022/11/10 09:40:33;;;;;;;;;27.75;21.50;;;;;10.17;82.81;99152.78;4918039;28;104783;-69
2022/11/10 09:43:05;;;;;;;;;18.00;16.50;;;;;10.18;82.66;99148.19;4918136;28;102319;-69
2022/11/10 09:45:38;;;;;;;;;15.00;13.00;;;;;10.20;83.05;99143.47;4905109;28;102391;-70
2022/11/10 09:48:24;;;;;;;;;16.25;12.50;;;;;10.27;83.27;99147.09;4912458;28;104061;-70
2022/11/10 09:51:03;;;;;;;;;12.50;11.50;;;;;10.33;83.34;99151.75;4913262;28;102072;-69
2022/11/10 09:53:37;;;;;;;;;14.25;11.50;;;;;10.36;83.67;99145.97;4919192;28;102371;-69
2022/11/10 09:56:05;;;;;;;;;15.75;10.00;;;;;10.36;83.47;99151.38;4905609;28;102364;-69
2022/11/10 09:58:42;;;;;;;;;15.75;11.00;;;;;10.36;83.69;99153.25;4904431;28;104043;-69
2022/11/10 10:01:24;;;;;;;;;14.50;12.25;;;;;10.34;83.99;99152.59;4909708;28;102611;-70
2022/11/10 10:04:20;;;;;;;;;11.50;9.00;;;;;10.37;83.42;99168.44;4912047;28;102439;-70
2022/11/10 10:06:57;;;;;;;;;10.00;9.00;;;;;10.39;84.21;99161.00;4913705;28;102473;-70
2022/11/10 10:09:42;;;;;;;;;9.25;8.50;;;;;10.42;84.58;99166.84;4906424;28;104024;-70
2022/11/10 10:12:56;;;;;;;;;14.00;12.75;;;;;10.47;84.32;99171.72;4899751;28;102275;-70
2022/11/10 10:15:36;;;;;;;;;23.50;20.00;;;;;10.38;84.73;99179.06;4907187;28;102186;-70
2022/11/10 10:18:14;;;;;;;;;24.50;21.00;;;;;10.40;84.61;99185.13;4920336;28;102443;-69
2022/11/10 10:21:19;;;;;;;;;23.00;19.00;;;;;10.43;83.78;99184.75;4904761;28;108721;-69
2022/11/10 10:23:54;;;;;;;;;17.75;15.00;;;;;10.48;83.76;99184.22;4903817;28;102222;-70
2022/11/10 10:26:51;;;;;;;;;17.25;13.50;;;;;10.48;83.34;99176.94;4908821;28;101885;-70
2022/11/10 10:29:23;;;;;;;;;14.25;13.00;;;;;10.52;83.90;99186.34;4906913;28;102443;-69
2022/11/10 10:31:52;;;;;;;;;17.75;15.00;;;;;10.54;83.39;99196.97;4896538;28;104019;-69
2022/11/10 10:34:23;;;;;;;;;12.75;10.00;;;;;10.65;83.21;99186.53;4904893;28;102110;-70
2022/11/10 10:36:50;;;;;;;;;12.75;9.00;;;;;10.79;82.89;99189.41;4926579;28;102384;-70
2022/11/10 10:39:30;;;;;;;;;10.75;9.25;;;;;10.87;82.46;99194.72;4914746;28;101995;-70
2022/11/10 10:41:57;;;;;;;;;18.00;16.50;;;;;10.86;81.83;99207.41;4915064;28;104292;-70
2022/11/10 10:44:24;;;;;;;;;13.00;12.50;;;;;10.86;81.85;99201.16;4922709;28;106155;-70
2022/11/10 10:46:58;;;;;;;;;12.75;9.25;;;;;10.91;81.58;99198.72;4920469;28;102259;-70
2022/11/10 10:49:28;;;;;;;;;13.75;11.00;;;;;10.86;81.76;99198.44;4912741;28;102411;-69
2022/11/10 10:52:04;;;;;;;;;10.00;9.00;;;;;10.85;81.91;99204.91;4901594;28;104014;-70
2022/11/10 10:54:35;;;;;;;;;19.50;14.25;;;;;10.79;81.98;99211.06;4909850;28;101799;-69
2022/11/10 10:57:22;;;;;;;;;17.50;15.25;;;;;10.77;81.04;99210.38;4910861;28;102193;-70
2022/11/10 10:59:50;;;;;;;;;20.50;15.50;;;;;10.78;81.53;99203.97;4908204;28;102203;-70
2022/11/10 11:02:38;;;;;;;;;23.00;21.00;;;;;10.73;81.71;99210.78;4909941;28;104002;-69
2022/11/10 11:05:14;;;;;;;;;19.00;18.00;;;;;10.76;81.16;99212.28;4914479;28;102388;-70
2022/11/10 11:07:52;;;;;;;;;32.25;28.75;;;;;10.65;81.46;99210.88;4913810;28;102393;-69
2022/11/10 11:10:23;;;;;;;;;31.50;27.50;;;;;10.70;81.03;99213.03;4916375;28;102077;-69
2022/11/10 11:12:51;;;;;;;;;27.00;21.25;;;;;10.84;80.12;99209.47;4915595;28;104221;-69
2022/11/10 11:15:20;;;;;;;;;18.75;15.75;;;;;11.00;79.62;99214.66;4911713;28;102437;-70
2022/11/10 11:17:59;;;;;;;;;30.75;26.50;;;;;10.90;80.54;99216.81;4903888;28;102107;-70
2022/11/10 11:20:59;;;;;;;;;31.50;27.00;;;;;10.73;79.65;99213.47;4914815;28;102396;-68
2022/11/10 11:23:44;;;;;;;;;36.50;29.00;;;;;10.79;81.07;99227.28;4894099;28;108642;-69
2022/11/10 11:26:21;;;;;;;;;29.00;22.25;;;;;10.72;79.95;99233.44;4907460;28;102258;-71
2022/11/10 11:29:07;;;;;;;;;37.00;25.00;;;;;10.78;80.51;99234.56;4907560;28;110393;-69
2022/11/10 11:32:00;;;;;;;;;28.50;23.00;;;;;10.92;79.74;99224.75;4910584;28;102235;-70
2022/11/10 11:34:36;;;;;;;;;37.00;29.25;;;;;10.68;80.41;99232.13;4901840;28;108701;-70
2022/11/10 11:37:10;;;;;;;;;36.25;32.75;;;;;10.67;80.23;99240.44;4901968;28;102104;-69
2022/11/10 11:40:13;;;;;;;;;37.50;33.75;;;;;10.79;80.72;99238.09;4902715;28;102373;-69
2022/11/10 11:43:10;;;;;;;;;29.00;25.00;;;;;11.04;79.49;99236.78;4910695;28;102039;-69
2022/11/10 11:45:45;;;;;;;;;30.50;27.75;;;;;11.15;79.05;99239.00;4909486;28;108663;-68
2022/11/10 11:48:41;;;;;;;;;40.75;34.25;;;;;10.96;78.86;99237.72;4932014;28;102170;-70
2022/11/10 11:51:22;;;;;;;;;45.75;34.00;;;;;10.98;78.96;99232.97;4904319;28;102303;-69